Time;durP1;ratioP1;P1;durP2;ratioP2;P2;SDS_P1;SDS_P2;PMS_P1;PMS_P2;Temp;Humidity;BMP_temperature;BMP_pressure;BME280_temperature;BME280_humidity;BME280_pressure;Samples;Min_cycle;Max_cycle;Signal;HPM_P1;HPM_P2
2023/12/09 00:01:08;;;;;;;;;;;;;;;17.97;62.37;101383.94;7391847;19;1456;-41
2023/12/09 00:03:36;;;;;;;;;;;;;;;17.79;63.14;101381.63;7392885;19;1120;-41
2023/12/09 00:06:05;;;;;;;;;;;;;;;17.63;63.27;101371.19;7390802;19;1843;-41
2023/12/09 00:08:33;;;;;;;;;;;;;;;17.55;63.76;101364.66;7390068;19;1493;-41
2023/12/09 00:11:01;;;;;;;;;;;;;;;17.55;63.90;101388.72;7390591;19;1465;-41
2023/12/09 00:13:30;;;;;;;;;;;;;;;17.39;64.40;101373.81;7392214;19;1522;-41
2023/12/09 00:16:01;;;;;;;;;;;;;;;17.83;62.95;101377.78;7390902;19;1393;-41
2023/12/09 00:18:29;;;;;;;;;;;;;;;18.40;61.71;101378.91;7391447;19;2162;-41
2023/12/09 00:20:57;;;;;;;;;;;;;;;18.59;61.04;101362.25;7390664;19;1564;-41
2023/12/09 00:23:26;;;;;;;;;;;;;;;18.26;61.96;101373.72;7389385;19;1418;-41
2023/12/09 00:25:54;;;;;;;;;;;;;;;17.93;62.35;101377.09;7388307;19;1880;-41
2023/12/09 00:28:23;;;;;;;;;;;;;;;17.70;63.11;101371.56;7389303;19;1460;-41
2023/12/09 00:30:51;;;;;;;;;;;;;;;17.61;63.53;101377.63;7388777;19;1588;-41
2023/12/09 00:33:22;;;;;;;;;;;;;;;17.53;63.69;101387.97;7388565;19;1508;-41
2023/12/09 00:35:50;;;;;;;;;;;;;;;17.53;63.76;101382.63;7389297;19;1503;-41
2023/12/09 00:38:18;;;;;;;;;;;;;;;17.42;63.94;101386.94;7389804;19;1516;-41
2023/12/09 00:40:47;;;;;;;;;;;;;;;17.89;62.85;101388.03;7390026;19;1370;-41
2023/12/09 00:43:15;;;;;;;;;;;;;;;18.37;61.67;101371.09;7388416;19;1845;-41
2023/12/09 00:45:44;;;;;;;;;;;;;;;18.60;60.98;101381.84;7388011;19;1849;-41
2023/12/09 00:48:12;;;;;;;;;;;;;;;18.21;61.98;101383.94;7388413;19;1404;-41
2023/12/09 00:50:43;;;;;;;;;;;;;;;17.83;62.58;101383.13;7395722;19;1488;-41
2023/12/09 00:53:12;;;;;;;;;;;;;;;17.68;63.16;101378.84;7395209;19;1848;-41
2023/12/09 00:55:40;;;;;;;;;;;;;;;17.60;63.38;101389.25;7395667;19;1723;-41
2023/12/09 00:58:09;;;;;;;;;;;;;;;17.50;63.73;101384.56;7394522;19;1550;-41
2023/12/09 01:00:37;;;;;;;;;;;;;;;17.44;63.89;101381.50;7393137;19;1489;-43
2023/12/09 01:03:06;;;;;;;;;;;;;;;17.45;63.92;101389.41;7395875;19;1845;-41
2023/12/09 01:05:34;;;;;;;;;;;;;;;18.04;62.22;101364.59;7395236;19;1848;-41
2023/12/09 01:08:05;;;;;;;;;;;;;;;18.58;60.88;101400.75;7395521;19;1330;-41
2023/12/09 01:10:33;;;;;;;;;;;;;;;18.37;61.16;101381.78;7396802;19;1378;-42
2023/12/09 01:13:02;;;;;;;;;;;;;;;17.97;62.01;101386.63;7396283;19;1488;-42
2023/12/09 01:15:30;;;;;;;;;;;;;;;17.76;62.99;101392.53;7395640;19;1497;-42
2023/12/09 01:17:59;;;;;;;;;;;;;;;17.65;63.25;101403.16;7395411;19;1480;-43
2023/12/09 01:20:27;;;;;;;;;;;;;;;17.53;63.88;101393.34;7395398;19;1479;-42
2023/12/09 01:22:55;;;;;;;;;;;;;;;17.47;63.67;101382.13;7396487;19;1575;-42
2023/12/09 01:25:26;;;;;;;;;;;;;;;17.36;64.19;101390.06;7394814;19;1857;-42
2023/12/09 01:27:55;;;;;;;;;;;;;;;17.83;62.95;101385.81;7392988;19;1472;-42
2023/12/09 01:30:23;;;;;;;;;;;;;;;18.29;61.60;101382.38;7394867;19;1574;-42
2023/12/09 01:32:52;;;;;;;;;;;;;;;18.61;60.70;101396.97;7395722;19;1369;-42
2023/12/09 01:35:20;;;;;;;;;;;;;;;18.48;60.92;101405.06;7395596;19;1473;-42
2023/12/09 01:37:48;;;;;;;;;;;;;;;18.06;61.81;101393.94;7395182;19;1473;-42
2023/12/09 01:40:17;;;;;;;;;;;;;;;17.79;62.56;101389.63;7394972;19;1307;-42
2023/12/09 01:42:48;;;;;;;;;;;;;;;17.62;63.28;101381.97;7394982;19;1488;-42
2023/12/09 01:45:16;;;;;;;;;;;;;;;17.47;63.71;101386.63;7393574;19;1866;-42
2023/12/09 01:47:45;;;;;;;;;;;;;;;17.41;63.66;101373.72;7394738;19;1563;-42
2023/12/09 01:50:13;;;;;;;;;;;;;;;17.38;64.01;101389.94;7394348;19;1563;-42
2023/12/09 01:52:42;;;;;;;;;;;;;;;17.94;62.64;101385.00;7394070;19;1465;-42
2023/12/09 01:55:12;;;;;;;;;;;;;;;18.40;61.30;101369.97;7394323;19;1242;-42
2023/12/09 01:57:40;;;;;;;;;;;;;;;18.52;60.68;101382.44;7394229;19;1532;-42
2023/12/09 02:00:13;;;;;;;;;;;;;;;18.44;60.82;101372.34;7394152;19;1532;-42
2023/12/09 02:02:41;;;;;;;;;;;;;;;18.02;61.90;101376.41;7393788;19;1395;-42
2023/12/09 02:05:10;;;;;;;;;;;;;;;17.79;62.55;101376.25;7394927;19;1838;-42
2023/12/09 02:07:38;;;;;;;;;;;;;;;17.59;63.19;101374.19;7394003;19;1509;-42
2023/12/09 02:10:07;;;;;;;;;;;;;;;17.46;63.73;101375.06;7394556;19;1771;-42
2023/12/09 02:12:39;;;;;;;;;;;;;;;17.44;63.63;101370.78;7393532;19;1468;-42
2023/12/09 02:15:09;;;;;;;;;;;;;;;17.33;64.00;101368.03;7389406;19;1683;-42
2023/12/09 02:17:42;;;;;;;;;;;;;;;17.64;63.19;101366.69;7392583;19;1614;-42
2023/12/09 02:20:13;;;;;;;;;;;;;;;18.14;61.75;101354.06;7393250;19;1381;-42
2023/12/09 02:22:41;;;;;;;;;;;;;;;18.58;60.99;101379.31;7393218;19;1414;-42
2023/12/09 02:25:12;;;;;;;;;;;;;;;18.58;60.56;101373.97;7391765;19;1609;-42
2023/12/09 02:27:45;;;;;;;;;;;;;;;18.61;60.64;101379.06;7390965;19;1906;-42
2023/12/09 02:30:16;;;;;;;;;;;;;;;18.18;61.40;101366.25;7393429;19;1504;-42
2023/12/09 02:32:46;;;;;;;;;;;;;;;17.80;62.45;101366.41;7392887;19;1385;-42
2023/12/09 02:35:15;;;;;;;;;;;;;;;18.05;62.03;101360.13;7392925;19;1394;-42
2023/12/09 02:37:44;;;;;;;;;;;;;;;18.78;60.47;101361.69;7393596;19;1568;-42
2023/12/09 02:40:17;;;;;;;;;;;;;;;19.46;58.62;101361.72;7393548;19;1386;-42
2023/12/09 02:42:46;;;;;;;;;;;;;;;19.97;57.20;101369.19;7392670;19;1956;-42
2023/12/09 02:45:15;;;;;;;;;;;;;;;20.23;56.50;101353.59;7392728;19;1495;-43
2023/12/09 02:47:43;;;;;;;;;;;;;;;20.27;56.36;101352.34;7390627;19;1849;-46
2023/12/09 02:50:12;;;;;;;;;;;;;;;20.20;56.42;101353.00;7391651;19;1583;-42
2023/12/09 02:52:41;;;;;;;;;;;;;;;20.04;56.88;101366.84;7392376;19;1495;-42
2023/12/09 02:55:10;;;;;;;;;;;;;;;19.12;58.77;101383.19;7393095;19;1404;-42
2023/12/09 02:57:41;;;;;;;;;;;;;;;18.56;60.63;101389.28;7392427;19;1525;-42
2023/12/09 03:00:10;;;;;;;;;;;;;;;18.59;60.64;101380.16;7392080;19;1465;-42
2023/12/09 03:02:38;;;;;;;;;;;;;;;19.03;59.61;101384.75;7392151;19;1425;-43
2023/12/09 03:05:07;;;;;;;;;;;;;;;19.58;58.53;101378.66;7392941;19;1432;-42
2023/12/09 03:07:36;;;;;;;;;;;;;;;20.09;57.07;101372.69;7389910;19;1847;-49
2023/12/09 03:10:04;;;;;;;;;;;;;;;20.20;56.58;101374.47;7391821;19;1463;-42
2023/12/09 03:12:32;;;;;;;;;;;;;;;20.24;56.53;101360.66;7390953;19;1512;-42
2023/12/09 03:15:05;;;;;;;;;;;;;;;19.87;57.51;101373.59;7391792;19;1584;-42
2023/12/09 03:17:33;;;;;;;;;;;;;;;19.72;57.99;101382.94;7391979;19;1582;-42
2023/12/09 03:20:02;;;;;;;;;;;;;;;19.88;57.54;101369.13;7391431;19;1410;-42
2023/12/09 03:22:31;;;;;;;;;;;;;;;19.99;57.20;101377.97;7391657;19;1485;-54
2023/12/09 03:24:59;;;;;;;;;;;;;;;19.93;57.14;101366.88;7391722;19;1584;-42
2023/12/09 03:27:27;;;;;;;;;;;;;;;19.97;57.21;101373.69;7393669;19;1866;-42
2023/12/09 03:29:55;;;;;;;;;;;;;;;19.91;57.33;101355.44;7394787;19;1493;-42
2023/12/09 03:32:26;;;;;;;;;;;;;;;20.02;57.16;101371.50;7395328;19;1931;-42
2023/12/09 03:34:55;;;;;;;;;;;;;;;20.18;56.88;101363.03;7394827;19;1493;-42
2023/12/09 03:37:23;;;;;;;;;;;;;;;20.33;56.30;101367.06;7394843;19;1481;-43
2023/12/09 03:39:51;;;;;;;;;;;;;;;20.37;56.43;101376.59;7393556;19;1377;-45
2023/12/09 03:42:20;;;;;;;;;;;;;;;20.44;56.23;101366.19;7393260;19;1502;-42
2023/12/09 03:44:48;;;;;;;;;;;;;;;20.48;56.04;101347.97;7392822;19;1521;-42
2023/12/09 03:47:16;;;;;;;;;;;;;;;20.52;55.96;101344.03;7389396;19;1864;-42
2023/12/09 03:49:47;;;;;;;;;;;;;;;20.58;56.03;101352.41;7391387;19;1544;-42
2023/12/09 03:52:15;;;;;;;;;;;;;;;20.49;55.96;101350.50;7390702;19;1479;-42
2023/12/09 03:54:44;;;;;;;;;;;;;;;20.61;55.60;101360.25;7391714;19;1428;-42
2023/12/09 03:57:13;;;;;;;;;;;;;;;20.58;55.71;101352.41;7392091;19;1432;-42
2023/12/09 03:59:41;;;;;;;;;;;;;;;20.55;55.79;101362.56;7390073;19;1411;-42
2023/12/09 04:02:10;;;;;;;;;;;;;;;19.61;57.89;101354.25;7390039;19;1874;-42
2023/12/09 04:04:40;;;;;;;;;;;;;;;19.01;59.44;101375.16;7390949;19;1498;-42
2023/12/09 04:07:11;;;;;;;;;;;;;;;18.63;60.46;101371.75;7388581;19;1994;-42
2023/12/09 04:09:39;;;;;;;;;;;;;;;18.44;60.99;101382.16;7389870;19;1408;-42
2023/12/09 04:12:08;;;;;;;;;;;;;;;18.75;60.16;101371.78;7389810;19;1508;-42
2023/12/09 04:14:36;;;;;;;;;;;;;;;19.08;59.54;101377.22;7390357;19;1422;-42
2023/12/09 04:17:04;;;;;;;;;;;;;;;19.28;58.97;101377.47;7390701;19;1573;-42
2023/12/09 04:19:33;;;;;;;;;;;;;;;19.45;58.65;101371.59;7390319;19;1491;-42
2023/12/09 04:22:01;;;;;;;;;;;;;;;19.61;58.07;101378.41;7389693;19;1406;-42
2023/12/09 04:24:32;;;;;;;;;;;;;;;19.51;58.10;101389.03;7393391;19;1378;-42
2023/12/09 04:27:00;;;;;;;;;;;;;;;19.51;58.35;101389.03;7396117;19;1862;-42
2023/12/09 04:29:29;;;;;;;;;;;;;;;19.52;58.28;101392.53;7399038;19;1339;-42
2023/12/09 04:31:57;;;;;;;;;;;;;;;19.41;58.29;101388.06;7397866;19;1448;-42
2023/12/09 04:34:25;;;;;;;;;;;;;;;19.41;58.23;101388.06;7397424;19;1574;-42
2023/12/09 04:36:54;;;;;;;;;;;;;;;19.42;58.31;101395.16;7397942;19;1579;-42
2023/12/09 04:39:22;;;;;;;;;;;;;;;19.41;58.44;101399.63;7397930;19;1485;-42
2023/12/09 04:41:53;;;;;;;;;;;;;;;19.44;58.41;101403.91;7396666;19;1557;-43
2023/12/09 04:44:23;;;;;;;;;;;;;;;19.45;58.41;101406.44;7397049;19;1423;-42
2023/12/09 04:46:51;;;;;;;;;;;;;;;19.38;58.53;101405.25;7394867;19;1871;-42
2023/12/09 04:49:19;;;;;;;;;;;;;;;19.40;58.27;101402.47;7397097;19;1480;-42
2023/12/09 04:51:47;;;;;;;;;;;;;;;19.35;58.48;101412.69;7397262;19;1414;-42
2023/12/09 04:54:16;;;;;;;;;;;;;;;19.35;58.37;101405.50;7394137;19;1481;-42
2023/12/09 04:56:44;;;;;;;;;;;;;;;19.37;58.39;101416.09;7396464;19;1903;-42
2023/12/09 04:59:15;;;;;;;;;;;;;;;19.36;58.38;101407.22;7395753;19;1558;-42
2023/12/09 05:01:45;;;;;;;;;;;;;;;19.37;58.26;101408.06;7395264;19;1505;-42
2023/12/09 05:04:14;;;;;;;;;;;;;;;19.31;58.40;101404.03;7395474;19;1224;-42
2023/12/09 05:06:42;;;;;;;;;;;;;;;19.37;58.29;101406.22;7394971;19;1854;-42
2023/12/09 05:09:11;;;;;;;;;;;;;;;19.33;58.39;101407.44;7396249;19;1492;-42
2023/12/09 05:11:40;;;;;;;;;;;;;;;19.34;58.34;101409.16;7395593;19;1541;-42
2023/12/09 05:14:08;;;;;;;;;;;;;;;19.35;58.29;101421.56;7395377;19;1496;-42
2023/12/09 05:16:39;;;;;;;;;;;;;;;19.32;58.51;101419.16;7395753;19;1480;-42
2023/12/09 05:19:08;;;;;;;;;;;;;;;19.32;58.40;101415.59;7395035;19;1448;-42
2023/12/09 05:21:37;;;;;;;;;;;;;;;19.34;58.50;101422.56;7393647;19;1479;-42
2023/12/09 05:24:05;;;;;;;;;;;;;;;19.40;58.34;101437.31;7396296;19;1409;-42
2023/12/09 05:26:34;;;;;;;;;;;;;;;19.44;58.06;101436.94;7395379;19;1846;-42
2023/12/09 05:29:03;;;;;;;;;;;;;;;19.34;58.24;101441.34;7393640;19;1498;-42
2023/12/09 05:31:31;;;;;;;;;;;;;;;19.39;57.80;101436.44;7395961;19;1504;-42
2023/12/09 05:34:02;;;;;;;;;;;;;;;19.44;57.76;101446.84;7396263;19;1376;-42
2023/12/09 05:36:30;;;;;;;;;;;;;;;19.44;57.55;101453.03;7394607;19;1274;-42
2023/12/09 05:38:59;;;;;;;;;;;;;;;19.47;57.17;101442.06;7394736;19;1501;-42
2023/12/09 05:41:27;;;;;;;;;;;;;;;19.56;57.28;101459.25;7394251;19;1520;-42
2023/12/09 05:43:55;;;;;;;;;;;;;;;19.64;57.44;101453.28;7395989;19;1401;-43
2023/12/09 05:46:24;;;;;;;;;;;;;;;19.93;56.96;101468.88;7394890;19;1678;-43
2023/12/09 05:48:52;;;;;;;;;;;;;;;20.14;56.55;101461.78;7394134;19;1528;-41
2023/12/09 05:51:23;;;;;;;;;;;;;;;20.15;57.08;101468.84;7393513;19;1586;-40
2023/12/09 05:53:51;;;;;;;;;;;;;;;20.37;56.41;101456.31;7392955;19;1748;-41
2023/12/09 05:56:19;;;;;;;;;;;;;;;20.39;56.65;101449.00;7394536;19;1377;-40
2023/12/09 05:58:48;;;;;;;;;;;;;;;20.14;57.19;101467.16;7393930;19;1604;-41
2023/12/09 06:01:16;;;;;;;;;;;;;;;19.56;58.33;101482.56;7392434;19;1484;-41
2023/12/09 06:03:45;;;;;;;;;;;;;;;19.05;59.38;101482.00;7393359;19;1510;-41
2023/12/09 06:06:13;;;;;;;;;;;;;;;18.72;60.40;101487.22;7394657;19;1476;-41
2023/12/09 06:08:44;;;;;;;;;;;;;;;18.37;60.89;101472.84;7391769;19;1863;-41
2023/12/09 06:11:12;;;;;;;;;;;;;;;18.73;60.57;101488.94;7374638;19;1603;-44
2023/12/09 06:13:40;;;;;;;;;;;;;;;19.45;58.36;101491.44;7393394;19;1488;-44
2023/12/09 06:16:09;;;;;;;;;;;;;;;19.71;57.34;101497.44;7395099;19;995;-43
2023/12/09 06:18:38;;;;;;;;;;;;;;;19.15;58.93;101503.59;7392037;19;1846;-44
2023/12/09 06:21:07;;;;;;;;;;;;;;;18.80;60.08;101501.78;7388570;19;2152;-44
2023/12/09 06:23:35;;;;;;;;;;;;;;;18.53;60.69;101499.31;7393519;19;1579;-44
2023/12/09 06:26:07;;;;;;;;;;;;;;;18.26;60.92;101502.22;7393485;19;1688;-44
2023/12/09 06:28:35;;;;;;;;;;;;;;;18.57;60.20;101498.13;7391017;19;1857;-44
2023/12/09 06:31:04;;;;;;;;;;;;;;;19.18;58.43;101506.03;7393230;19;1188;-44
2023/12/09 06:33:33;;;;;;;;;;;;;;;19.45;57.35;101507.53;7387896;19;1332;-44
2023/12/09 06:36:01;;;;;;;;;;;;;;;19.43;56.57;101506.81;7392823;19;1443;-45
2023/12/09 06:38:30;;;;;;;;;;;;;;;18.99;57.57;101509.28;7393289;19;1188;-44
2023/12/09 06:40:58;;;;;;;;;;;;;;;18.66;58.62;101502.81;7394011;19;1113;-47
2023/12/09 06:43:29;;;;;;;;;;;;;;;18.72;58.69;101509.53;7392990;19;1497;-44
2023/12/09 06:45:57;;;;;;;;;;;;;;;19.26;57.19;101513.50;7393214;19;1578;-44
2023/12/09 06:48:26;;;;;;;;;;;;;;;19.52;56.50;101513.25;7391598;19;1887;-44
2023/12/09 06:50:54;;;;;;;;;;;;;;;19.43;56.66;101518.38;7392251;19;1954;-44
2023/12/09 06:53:23;;;;;;;;;;;;;;;18.99;57.31;101505.75;7391863;19;1638;-44
2023/12/09 06:55:51;;;;;;;;;;;;;;;18.63;58.86;101511.06;7392401;19;1269;-43
2023/12/09 06:58:19;;;;;;;;;;;;;;;18.91;57.88;101518.88;7391362;19;1133;-44
2023/12/09 07:00:50;;;;;;;;;;;;;;;19.22;57.41;101522.75;7392567;19;1567;-43
2023/12/09 07:03:18;;;;;;;;;;;;;;;19.44;56.88;101521.94;7392191;19;1524;-43
2023/12/09 07:05:47;;;;;;;;;;;;;;;19.56;56.82;101530.84;7393088;19;1592;-44
2023/12/09 07:08:15;;;;;;;;;;;;;;;19.02;57.93;101524.25;7391430;19;1850;-41
2023/12/09 07:10:46;;;;;;;;;;;;;;;18.65;58.93;101524.34;7373823;19;1280;-41
2023/12/09 07:13:14;;;;;;;;;;;;;;;18.65;58.87;101521.66;7390815;19;1434;-41
2023/12/09 07:15:42;;;;;;;;;;;;;;;19.14;58.23;101527.81;7391294;19;1223;-41
2023/12/09 07:18:13;;;;;;;;;;;;;;;19.17;57.54;101535.66;7390500;19;1704;-41
2023/12/09 07:20:42;;;;;;;;;;;;;;;19.33;57.31;101530.81;7389502;19;1274;-41
2023/12/09 07:23:10;;;;;;;;;;;;;;;18.88;58.07;101523.50;7391639;19;1481;-41
2023/12/09 07:25:38;;;;;;;;;;;;;;;18.53;59.15;101527.94;7392092;19;1475;-42
2023/12/09 07:28:07;;;;;;;;;;;;;;;18.77;58.66;101520.75;7390089;19;1872;-41
2023/12/09 07:30:35;;;;;;;;;;;;;;;19.17;58.00;101524.94;7387547;19;1333;-41
2023/12/09 07:33:03;;;;;;;;;;;;;;;19.47;57.11;101525.22;7391682;19;1630;-42
2023/12/09 07:35:34;;;;;;;;;;;;;;;19.30;57.47;101536.41;7387915;19;1485;-42
2023/12/09 07:38:03;;;;;;;;;;;;;;;18.79;58.54;101529.53;7389648;19;1405;-42
2023/12/09 07:40:31;;;;;;;;;;;;;;;18.44;59.44;101510.72;7392982;19;1130;-41
2023/12/09 07:42:59;;;;;;;;;;;;;;;18.71;58.35;101518.53;7391279;19;1477;-41
2023/12/09 07:45:28;;;;;;;;;;;;;;;19.03;57.39;101508.06;7387730;19;1639;-42
2023/12/09 07:47:56;;;;;;;;;;;;;;;19.31;56.65;101522.03;7388856;19;1879;-42
2023/12/09 07:50:24;;;;;;;;;;;;;;;19.33;56.08;101503.97;7389627;19;1220;-42
2023/12/09 07:52:55;;;;;;;;;;;;;;;19.39;55.97;101503.50;7389398;19;1266;-41
2023/12/09 07:55:24;;;;;;;;;;;;;;;19.38;56.20;101523.25;7389774;19;1492;-42
2023/12/09 07:57:52;;;;;;;;;;;;;;;19.42;56.11;101513.16;7392985;19;1485;-42
2023/12/09 08:00:21;;;;;;;;;;;;;;;19.38;56.17;101517.91;7399137;19;1493;-42
2023/12/09 08:02:49;;;;;;;;;;;;;;;19.43;56.32;101525.56;7397800;19;1406;-42
2023/12/09 08:05:18;;;;;;;;;;;;;;;19.39;56.00;101514.22;7398284;19;1512;-41
2023/12/09 08:07:44;;;;;;;;;;;;;;;19.37;56.38;101523.38;7398184;19;1875;-41
2023/12/09 08:10:15;;;;;;;;;;;;;;;19.43;56.09;101529.09;7382943;19;1447;-46
2023/12/09 08:12:43;;;;;;;;;;;;;;;19.39;56.75;101524.09;7397977;19;1663;-45
2023/12/09 08:15:12;;;;;;;;;;;;;;;19.51;56.50;101536.56;7395987;19;1607;-45
2023/12/09 08:17:41;;;;;;;;;;;;;;;19.53;56.47;101525.72;7396971;19;1564;-45
2023/12/09 08:20:11;;;;;;;;;;;;;;;19.55;56.21;101513.03;7396903;19;1595;-45
2023/12/09 08:22:40;;;;;;;;;;;;;;;19.58;56.60;101531.59;7397001;19;1394;-45
2023/12/09 08:25:09;;;;;;;;;;;;;;;19.56;56.42;101520.13;7396435;19;1385;-46
2023/12/09 08:27:42;;;;;;;;;;;;;;;19.49;56.35;101514.38;7397651;19;1846;-46
2023/12/09 08:30:12;;;;;;;;;;;;;;;19.47;56.63;101516.31;7396303;19;1387;-45
2023/12/09 08:32:41;;;;;;;;;;;;;;;19.54;56.65;101500.59;7394398;19;1506;-45
2023/12/09 08:35:10;;;;;;;;;;;;;;;19.58;56.58;101510.13;7394134;19;1187;-45
2023/12/09 08:37:39;;;;;;;;;;;;;;;19.65;56.33;101524.75;7396157;19;1489;-45
2023/12/09 08:40:10;;;;;;;;;;;;;;;19.56;56.56;101504.03;7389909;19;1259;-45
2023/12/09 08:42:42;;;;;;;;;;;;;;;19.52;56.47;101510.56;7394393;19;1328;-45
2023/12/09 08:45:12;;;;;;;;;;;;;;;19.52;56.35;101505.22;7395554;19;1387;-45
2023/12/09 08:47:41;;;;;;;;;;;;;;;19.47;56.63;101489.50;7394193;19;1851;-45
2023/12/09 08:50:10;;;;;;;;;;;;;;;19.55;56.33;101495.09;7395670;19;1547;-45
2023/12/09 08:52:39;;;;;;;;;;;;;;;19.52;56.53;101497.16;7394985;19;1230;-45
2023/12/09 08:55:08;;;;;;;;;;;;;;;19.31;57.08;101484.47;7394620;19;1120;-42
2023/12/09 08:57:36;;;;;;;;;;;;;;;19.05;57.96;101484.69;7393713;19;1590;-42
2023/12/09 09:00:08;;;;;;;;;;;;;;;19.03;58.16;101489.31;7391287;19;1022;-42
2023/12/09 09:02:37;;;;;;;;;;;;;;;19.05;57.94;101483.81;7396384;19;1053;-42
2023/12/09 09:05:05;;;;;;;;;;;;;;;19.34;57.35;101489.63;7393493;19;1765;-42
2023/12/09 09:07:38;;;;;;;;;;;;;;;19.39;57.13;101487.41;7393440;19;1862;-42
2023/12/09 09:10:07;;;;;;;;;;;;;;;19.41;56.88;101469.38;7393647;19;1487;-42
2023/12/09 09:12:36;;;;;;;;;;;;;;;19.40;57.03;101483.78;7380535;19;1734;-42
2023/12/09 09:15:04;;;;;;;;;;;;;;;19.39;57.14;101476.69;7395836;19;1190;-42
2023/12/09 09:17:35;;;;;;;;;;;;;;;19.38;57.13;101485.72;7394719;19;1670;-43
2023/12/09 09:20:04;;;;;;;;;;;;;;;19.38;57.26;101485.72;7392170;19;1618;-42
2023/12/09 09:22:33;;;;;;;;;;;;;;;19.36;57.27;101452.81;7395030;19;1554;-42
2023/12/09 09:25:01;;;;;;;;;;;;;;;19.44;57.29;101479.03;7393608;19;1596;-42
2023/12/09 09:27:29;;;;;;;;;;;;;;;19.45;57.08;101476.19;7393835;19;1217;-43
2023/12/09 09:29:58;;;;;;;;;;;;;;;19.45;57.26;101456.56;7390628;19;1949;-42
2023/12/09 09:32:26;;;;;;;;;;;;;;;19.43;57.10;101464.72;7394996;19;1597;-42
2023/12/09 09:34:57;;;;;;;;;;;;;;;19.43;57.26;101459.38;7394405;19;1844;-42
2023/12/09 09:37:25;;;;;;;;;;;;;;;19.40;57.37;101456.94;7394007;19;1226;-42
2023/12/09 09:39:54;;;;;;;;;;;;;;;19.45;57.11;101460.09;7395668;19;1272;-42
2023/12/09 09:42:26;;;;;;;;;;;;;;;19.32;57.71;101454.03;7392625;19;1725;-42
2023/12/09 09:45:05;;;;;;;;;;;;;;;19.31;57.40;101440.72;7395152;19;1317;-42
2023/12/09 09:47:36;;;;;;;;;;;;;;;19.35;57.62;101452.91;7395486;19;1713;-42
2023/12/09 09:50:09;;;;;;;;;;;;;;;19.25;57.73;101442.06;7392698;19;1836;-42
2023/12/09 09:52:38;;;;;;;;;;;;;;;19.19;58.08;101447.91;7392895;19;1186;-41
2023/12/09 09:55:08;;;;;;;;;;;;;;;18.84;59.31;101353.22;7391989;19;1316;-47
2023/12/09 09:57:37;;;;;;;;;;;;;;;19.26;58.23;101428.53;7394272;19;1528;-42
2023/12/09 10:00:12;;;;;;;;;;;;;;;19.25;58.67;101434.84;7394356;19;1097;-42
2023/12/09 10:02:41;;;;;;;;;;;;;;;19.35;58.25;101437.66;7394037;19;1542;-41
2023/12/09 10:05:13;;;;;;;;;;;;;;;19.33;57.81;101410.13;7393079;19;1900;-44
2023/12/09 10:07:41;;;;;;;;;;;;;;;19.39;57.42;101412.31;7391356;19;1777;-43
2023/12/09 10:10:10;;;;;;;;;;;;;;;19.22;58.04;101415.50;7390853;19;1844;-42
2023/12/09 10:12:39;;;;;;;;;;;;;;;19.30;57.57;101412.19;7379060;19;1585;-42
2023/12/09 10:15:08;;;;;;;;;;;;;;;19.31;57.61;101404.03;7393599;19;1742;-42
2023/12/09 10:17:36;;;;;;;;;;;;;;;19.30;57.88;101413.06;7393346;19;1571;-42
2023/12/09 10:20:06;;;;;;;;;;;;;;;19.19;57.98;101392.44;7390253;19;1437;-41
2023/12/09 10:22:37;;;;;;;;;;;;;;;19.29;58.27;101379.16;7390020;19;1829;-41
2023/12/09 10:25:06;;;;;;;;;;;;;;;19.47;58.00;101392.94;7392938;19;1774;-41
2023/12/09 10:27:35;;;;;;;;;;;;;;;19.50;58.18;101398.06;7391335;19;1506;-41
2023/12/09 10:30:03;;;;;;;;;;;;;;;19.46;58.42;101397.44;7391479;19;1834;-41
2023/12/09 10:32:32;;;;;;;;;;;;;;;19.38;58.80;101394.53;7392125;19;1259;-42
2023/12/09 10:35:01;;;;;;;;;;;;;;;19.36;58.69;101401.84;7395007;19;1736;-41
2023/12/09 10:37:29;;;;;;;;;;;;;;;19.24;59.23;101394.78;7392967;19;1397;-41
2023/12/09 10:40:03;;;;;;;;;;;;;;;19.27;59.39;101395.38;7394013;19;1531;-41
2023/12/09 10:42:32;;;;;;;;;;;;;;;19.28;58.97;101389.03;7391375;19;1554;-41
2023/12/09 10:45:00;;;;;;;;;;;;;;;19.33;58.92;101402.06;7394274;19;1584;-41
2023/12/09 10:47:28;;;;;;;;;;;;;;;19.32;58.46;101408.44;7389992;19;1487;-42
2023/12/09 10:49:57;;;;;;;;;;;;;;;19.32;58.52;101405.75;7389378;19;1904;-42
2023/12/09 10:52:25;;;;;;;;;;;;;;;19.33;58.37;101402.06;7390480;19;1261;-41
2023/12/09 10:54:54;;;;;;;;;;;;;;;19.25;58.05;101393.78;7389467;19;1512;-41
2023/12/09 10:57:26;;;;;;;;;;;;;;;19.45;57.96;101400.25;7384509;19;1485;-40
2023/12/09 10:59:54;;;;;;;;;;;;;;;19.61;57.66;101391.81;7388494;19;1260;-41
2023/12/09 11:02:23;;;;;;;;;;;;;;;19.59;57.88;101391.09;7386635;19;2179;-41
2023/12/09 11:04:52;;;;;;;;;;;;;;;19.62;57.98;101385.50;7385231;19;1788;-40
2023/12/09 11:07:21;;;;;;;;;;;;;;;19.59;57.66;101396.44;7378930;19;1560;-40
2023/12/09 11:09:49;;;;;;;;;;;;;;;19.44;57.79;101399.41;7381800;19;1847;-41
2023/12/09 11:12:28;;;;;;;;;;;;;;;19.36;57.50;101393.81;7371542;19;1362;-41
2023/12/09 11:14:56;;;;;;;;;;;;;;;19.42;57.57;101401.34;7387634;19;1679;-41
2023/12/09 11:17:35;;;;;;;;;;;;;;;19.53;57.36;101386.22;7386565;19;1462;-41
2023/12/09 11:20:09;;;;;;;;;;;;;;;19.47;57.16;101382.19;7385186;19;1370;-41
2023/12/09 11:22:40;;;;;;;;;;;;;;;19.38;57.41;101383.81;7387315;19;1482;-41
2023/12/09 11:25:10;;;;;;;;;;;;;;;19.36;57.64;101384.88;7387704;19;1622;-41
2023/12/09 11:27:42;;;;;;;;;;;;;;;19.26;57.85;101385.63;7388017;19;1597;-40
2023/12/09 11:30:30;;;;;;;;;;;;;;;19.23;57.72;101385.88;7388227;19;1860;-41
2023/12/09 11:32:58;;;;;;;;;;;;;;;19.31;57.12;101371.84;7386896;19;1441;-40
2023/12/09 11:35:27;;;;;;;;;;;;;;;19.35;57.17;101386.72;7386154;19;2363;-41
2023/12/09 11:37:55;;;;;;;;;;;;;;;19.41;56.90;101383.53;7388032;19;1248;-41
2023/12/09 11:40:24;;;;;;;;;;;;;;;19.43;57.01;101376.22;7387624;19;1319;-40
2023/12/09 11:42:56;;;;;;;;;;;;;;;19.37;57.09;101376.72;7389356;19;1541;-41
2023/12/09 11:45:24;;;;;;;;;;;;;;;19.28;57.57;101370.28;7391087;19;1513;-41
2023/12/09 11:47:53;;;;;;;;;;;;;;;19.21;57.60;101366.38;7389151;19;1572;-41
2023/12/09 11:50:21;;;;;;;;;;;;;;;19.15;57.94;101376.72;7386715;19;1847;-41
2023/12/09 11:52:50;;;;;;;;;;;;;;;19.29;57.56;101379.16;7387388;19;1451;-41
2023/12/09 11:55:22;;;;;;;;;;;;;;;19.27;57.50;101356.97;7385141;19;1309;-41
2023/12/09 11:57:50;;;;;;;;;;;;;;;19.32;57.66;101370.88;7385290;19;1262;-40
2023/12/09 12:00:21;;;;;;;;;;;;;;;19.30;57.88;101370.16;7382519;19;1750;-40
2023/12/09 12:02:49;;;;;;;;;;;;;;;19.32;57.59;101356.59;7386293;19;1452;-41
2023/12/09 12:05:18;;;;;;;;;;;;;;;19.33;57.70;101380.63;7383747;19;1292;-41
2023/12/09 12:07:46;;;;;;;;;;;;;;;19.30;57.88;101375.53;7384855;19;1204;-40
2023/12/09 12:10:15;;;;;;;;;;;;;;;19.28;57.96;101362.22;7383947;19;1849;-41
2023/12/09 12:12:44;;;;;;;;;;;;;;;19.36;57.76;101364.28;7370231;19;1971;-40
2023/12/09 12:15:12;;;;;;;;;;;;;;;19.32;57.78;101370.88;7384530;19;1366;-41
2023/12/09 12:17:44;;;;;;;;;;;;;;;19.41;57.60;101372.81;7384893;19;1398;-40
2023/12/09 12:20:13;;;;;;;;;;;;;;;19.34;57.51;101355.53;7384185;19;1024;-41
2023/12/09 12:22:42;;;;;;;;;;;;;;;19.34;57.63;101346.59;7382327;19;1156;-41
2023/12/09 12:25:11;;;;;;;;;;;;;;;19.30;57.82;101370.16;7382535;19;1418;-40
2023/12/09 12:27:44;;;;;;;;;;;;;;;19.25;57.81;101364.28;7385636;19;1555;-41
2023/12/09 12:30:13;;;;;;;;;;;;;;;19.28;57.79;101354.19;7381759;19;1887;-40
2023/12/09 12:32:44;;;;;;;;;;;;;;;19.29;58.12;101355.03;7384979;19;1386;-40
2023/12/09 12:35:12;;;;;;;;;;;;;;;19.28;58.01;101345.28;7383018;19;1445;-40
2023/12/09 12:37:41;;;;;;;;;;;;;;;19.42;57.67;101330.78;7382855;19;1408;-41
2023/12/09 12:40:11;;;;;;;;;;;;;;;19.43;57.67;101346.72;7386112;19;962;-40
2023/12/09 12:42:39;;;;;;;;;;;;;;;19.39;57.87;101339.91;7384557;19;1508;-40
2023/12/09 12:45:09;;;;;;;;;;;;;;;19.50;57.37;101343.53;7388980;19;1557;-40
2023/12/09 12:47:38;;;;;;;;;;;;;;;19.53;57.30;101337.94;7391348;19;1665;-41
2023/12/09 12:50:09;;;;;;;;;;;;;;;19.54;57.26;101331.59;7394735;19;1839;-40
2023/12/09 12:52:38;;;;;;;;;;;;;;;19.50;57.19;101327.44;7394555;19;1336;-40
2023/12/09 12:55:07;;;;;;;;;;;;;;;19.60;57.41;101337.31;7394483;19;1753;-40
2023/12/09 12:57:35;;;;;;;;;;;;;;;19.68;56.81;101334.00;6880133;19;9999835;-41